createdAt,value
2023-01-20T00:00:31.432Z,0.30
2023-01-20T00:05:32.848Z,0.40
2023-01-20T00:10:34.233Z,0.40
2023-01-20T00:15:35.623Z,0.40
2023-01-20T00:20:37.032Z,0.40
2023-01-20T00:25:38.441Z,0.30
2023-01-20T00:30:39.953Z,0.30
2023-01-20T00:35:41.422Z,0.22
2023-01-20T00:40:42.935Z,0.20
2023-01-20T00:45:44.403Z,0.30
2023-01-20T00:50:45.781Z,0.20
2023-01-20T00:55:47.169Z,0.30
2023-01-20T01:00:49.262Z,0.20
2023-01-20T01:05:50.844Z,0.40
2023-01-20T01:10:55.450Z,0.32
2023-01-20T01:15:57.125Z,0.30
2023-01-20T01:20:58.708Z,0.30
2023-01-20T01:26:00.116Z,0.30
2023-01-20T01:31:02.469Z,0.25
2023-01-20T01:36:04.346Z,0.20
2023-01-20T01:41:05.854Z,0.30
2023-01-20T01:46:07.574Z,0.40
2023-01-20T01:51:11.207Z,0.20
2023-01-20T01:56:12.635Z,0.30
2023-01-20T02:01:14.157Z,0.30
2023-01-20T02:06:15.590Z,0.20
2023-01-20T02:11:16.978Z,0.25
2023-01-20T02:16:25.157Z,0.30
2023-01-20T02:21:41.186Z,0.22
2023-01-20T02:27:03.342Z,0.20
2023-01-20T02:32:07.494Z,0.40
2023-01-20T02:37:17.545Z,0.30
2023-01-20T02:42:22.458Z,0.20
2023-01-20T02:47:33.709Z,0.40
2023-01-20T02:52:36.682Z,0.40
2023-01-20T02:57:48.722Z,0.30
2023-01-20T03:02:50.835Z,0.30
2023-01-20T03:07:52.215Z,0.30
2023-01-20T03:12:55.726Z,0.40
2023-01-20T03:17:57.131Z,0.30
2023-01-20T03:22:58.521Z,0.40
2023-01-20T03:27:59.917Z,0.30
2023-01-20T03:33:01.323Z,0.30
2023-01-20T03:38:02.726Z,0.30
2023-01-20T03:43:10.619Z,0.30
2023-01-20T03:48:16.737Z,0.40
2023-01-20T03:53:35.380Z,0.30
2023-01-20T03:58:41.612Z,0.30
2023-01-20T04:03:44.190Z,0.30
2023-01-20T04:08:56.520Z,0.30
2023-01-20T04:13:58.224Z,0.40
2023-01-20T04:18:59.665Z,0.43
2023-01-20T04:24:19.704Z,0.35
2023-01-20T04:29:21.131Z,0.40
2023-01-20T04:34:22.523Z,0.30
2023-01-20T04:39:23.938Z,0.30
2023-01-20T04:44:25.309Z,0.20
2023-01-20T04:49:26.759Z,0.30
2023-01-20T04:54:28.133Z,0.40
2023-01-20T04:59:29.559Z,0.40
2023-01-20T05:04:30.953Z,0.30
2023-01-20T05:09:32.386Z,0.22
2023-01-20T05:14:33.773Z,0.30
2023-01-20T05:19:35.174Z,0.30
2023-01-20T05:24:36.555Z,0.40
2023-01-20T05:29:37.945Z,0.20
2023-01-20T05:34:39.310Z,0.40
2023-01-20T05:39:40.714Z,0.47
2023-01-20T05:44:42.132Z,0.40
2023-01-20T05:49:44.071Z,0.40
2023-01-20T05:54:45.446Z,0.40
2023-01-20T05:59:51.265Z,0.20
2023-01-20T06:09:53.899Z,0.30
2023-01-20T06:15:10.724Z,0.40
2023-01-20T06:20:12.140Z,0.40
2023-01-20T06:25:13.786Z,0.35
2023-01-20T06:30:15.614Z,0.30
2023-01-20T06:35:17.335Z,0.35
2023-01-20T06:40:18.921Z,0.40
2023-01-20T06:45:20.307Z,0.28
2023-01-20T06:50:21.672Z,0.40
2023-01-20T06:55:23.038Z,0.40
2023-01-20T07:00:24.601Z,0.30
2023-01-20T07:05:26.013Z,0.47
2023-01-20T07:10:27.393Z,0.40
2023-01-20T07:15:28.769Z,0.30
2023-01-20T07:20:30.156Z,1.02
2023-01-20T07:25:31.618Z,0.60
2023-01-20T07:30:33.034Z,0.52
2023-01-20T07:35:34.438Z,0.43
2023-01-20T07:40:35.885Z,0.50
2023-01-20T07:45:37.328Z,0.50
2023-01-20T07:50:38.778Z,0.30
2023-01-20T07:55:40.217Z,0.80
2023-01-20T08:00:41.666Z,0.85
2023-01-20T08:05:43.115Z,0.90
2023-01-20T08:10:44.603Z,0.90
2023-01-20T08:15:46.042Z,0.40
2023-01-20T08:20:47.457Z,0.80
2023-01-20T08:25:48.897Z,0.50
2023-01-20T08:30:50.336Z,0.50
2023-01-20T08:35:51.819Z,0.40
2023-01-20T08:40:53.539Z,0.40
2023-01-20T08:46:01.835Z,0.45
2023-01-20T08:51:07.546Z,0.40
2023-01-20T09:01:30.005Z,0.35
2023-01-20T09:06:45.318Z,0.50
2023-01-20T09:11:51.052Z,0.40
2023-01-20T09:16:52.767Z,0.35
2023-01-20T09:21:54.160Z,0.32
2023-01-20T09:26:56.691Z,0.43
2023-01-20T09:31:58.223Z,0.30
2023-01-20T09:37:19.346Z,0.40
2023-01-20T09:43:05.388Z,0.40
2023-01-20T09:48:15.287Z,0.50
2023-01-20T09:53:39.863Z,0.40
2023-01-20T09:58:48.244Z,0.50
2023-01-20T10:04:05.114Z,0.30
2023-01-20T10:09:41.711Z,0.30
2023-01-20T10:14:45.752Z,0.40
2023-01-20T10:19:56.269Z,0.40
2023-01-20T10:24:58.803Z,0.30
2023-01-20T10:30:06.739Z,0.30
2023-01-20T10:35:16.214Z,0.40
2023-01-20T10:40:32.915Z,0.40
2023-01-20T10:45:48.569Z,0.40
2023-01-20T10:51:13.265Z,0.30
2023-01-20T10:56:56.590Z,0.20
2023-01-20T11:02:13.986Z,0.30
2023-01-20T11:07:16.569Z,0.30
2023-01-20T11:12:23.209Z,0.40
2023-01-20T11:17:24.642Z,0.40
2023-01-20T11:22:34.168Z,0.40
2023-01-20T11:27:40.955Z,0.40
2023-01-20T11:32:42.414Z,0.60
2023-01-20T11:37:43.825Z,0.30
2023-01-20T11:42:46.628Z,0.52
2023-01-20T11:48:02.594Z,0.60
2023-01-20T11:53:16.002Z,0.57
2023-01-20T11:58:28.297Z,0.57
2023-01-20T12:03:52.144Z,0.90
2023-01-20T12:09:04.812Z,0.40
2023-01-20T12:14:38.044Z,0.70
2023-01-20T12:19:55.547Z,0.50
2023-01-20T12:25:08.089Z,0.50
2023-01-20T12:30:34.699Z,0.80
2023-01-20T12:35:39.172Z,0.70
2023-01-20T12:40:52.036Z,0.63
2023-01-20T12:46:25.016Z,0.50
2023-01-20T12:51:35.782Z,0.40
2023-01-20T12:56:53.311Z,0.88
2023-01-20T13:02:18.534Z,0.70
2023-01-20T13:07:35.190Z,28.48
2023-01-20T13:12:54.742Z,42.80
2023-01-20T13:18:17.798Z,35.47
2023-01-20T13:23:41.869Z,27.42
2023-01-20T13:28:53.537Z,20.48
2023-01-20T13:33:54.922Z,17.08
2023-01-20T13:39:39.542Z,12.00
2023-01-20T13:44:42.472Z,9.88
2023-01-20T13:49:43.905Z,8.63
2023-01-20T13:54:46.529Z,5.90
2023-01-20T13:59:47.914Z,5.68
2023-01-20T14:04:49.523Z,3.55
2023-01-20T14:09:52.065Z,4.15
2023-01-20T14:14:54.621Z,3.28
2023-01-20T14:19:56.109Z,2.38
2023-01-20T14:24:58.882Z,2.25
2023-01-20T14:30:13.632Z,2.58
2023-01-20T14:35:27.610Z,1.70
2023-01-20T14:40:33.042Z,35.47
2023-01-20T14:45:34.435Z,47.53
2023-01-20T14:50:35.849Z,36.35
2023-01-20T14:55:43.185Z,27.60
2023-01-20T15:00:48.122Z,22.38
2023-01-20T15:05:59.550Z,14.53
2023-01-20T15:11:20.358Z,10.93
2023-01-20T15:16:36.570Z,9.15
2023-01-20T15:21:38.056Z,8.05
2023-01-20T15:26:39.502Z,5.97
2023-01-20T15:31:40.953Z,4.95
2023-01-20T15:36:43.489Z,4.43
2023-01-20T15:41:45.495Z,4.60
2023-01-20T15:46:46.897Z,3.25
2023-01-20T15:51:48.335Z,2.53
2023-01-20T15:56:49.765Z,2.85
2023-01-20T16:01:51.405Z,2.22
2023-01-20T16:06:52.845Z,1.75
2023-01-20T16:11:54.386Z,1.80
2023-01-20T16:16:55.767Z,1.60
2023-01-20T16:21:57.196Z,1.58
2023-01-20T16:26:58.646Z,1.40
2023-01-20T16:32:00.080Z,1.30
2023-01-20T16:37:01.555Z,1.10
2023-01-20T16:42:02.962Z,1.13
2023-01-20T16:47:04.652Z,1.10
2023-01-20T16:52:06.150Z,0.95
2023-01-20T16:57:08.460Z,0.82
2023-01-20T17:02:11.094Z,0.80
2023-01-20T17:07:12.533Z,0.95
2023-01-20T17:12:13.931Z,0.90
2023-01-20T17:17:15.323Z,0.60
2023-01-20T17:22:17.103Z,0.85
2023-01-20T17:27:18.493Z,0.70
2023-01-20T17:32:19.866Z,0.90
2023-01-20T17:37:21.258Z,0.75
2023-01-20T17:42:22.681Z,0.82
2023-01-20T17:47:24.301Z,0.90
2023-01-20T17:52:25.796Z,0.80
2023-01-20T17:57:28.077Z,0.60
2023-01-20T18:02:29.654Z,0.80
2023-01-20T18:07:31.128Z,0.75
2023-01-20T18:12:32.852Z,0.70
2023-01-20T18:17:34.381Z,0.90
2023-01-20T18:22:35.854Z,0.90
2023-01-20T18:27:37.842Z,0.80
2023-01-20T18:32:39.340Z,0.80
2023-01-20T18:37:40.726Z,1.00
2023-01-20T18:42:44.812Z,0.80
2023-01-20T18:47:47.775Z,0.68
2023-01-20T18:52:49.156Z,0.68
2023-01-20T18:57:50.564Z,0.80
2023-01-20T19:02:52.348Z,0.75
2023-01-20T19:07:53.751Z,0.90
2023-01-20T19:12:55.114Z,0.82
2023-01-20T19:17:56.481Z,0.60
2023-01-20T19:22:57.890Z,0.73
2023-01-20T19:27:59.275Z,0.70
2023-01-20T19:33:00.650Z,0.60
2023-01-20T19:38:02.050Z,0.70
2023-01-20T19:43:03.431Z,0.85
2023-01-20T19:48:04.869Z,0.80
2023-01-20T19:53:06.274Z,0.70
2023-01-20T19:58:07.694Z,0.80
2023-01-20T20:03:09.075Z,0.75
2023-01-20T20:08:10.465Z,0.60
2023-01-20T20:13:11.839Z,0.80
2023-01-20T20:18:13.229Z,0.60
2023-01-20T20:23:14.602Z,0.60
2023-01-20T20:28:15.984Z,0.70
2023-01-20T20:33:18.436Z,0.70
2023-01-20T20:38:19.867Z,0.50
2023-01-20T20:43:24.835Z,0.70
2023-01-20T20:48:26.382Z,0.60
2023-01-20T20:53:27.822Z,0.60
2023-01-20T20:58:31.572Z,0.40
2023-01-20T21:03:34.229Z,0.70
2023-01-20T21:08:35.666Z,0.60
2023-01-20T21:13:37.052Z,0.40
2023-01-20T21:18:38.621Z,0.70
2023-01-20T21:23:42.842Z,0.63
2023-01-20T21:28:44.340Z,0.50
2023-01-20T21:33:46.423Z,0.88
2023-01-20T21:38:47.851Z,0.70
2023-01-20T21:44:07.795Z,0.63
2023-01-20T21:49:27.483Z,0.80
2023-01-20T21:54:29.793Z,0.90
2023-01-20T21:59:31.269Z,1.10
2023-01-20T22:04:32.744Z,0.95
2023-01-20T22:09:34.133Z,0.85
2023-01-20T22:14:35.801Z,0.88
2023-01-20T22:19:37.195Z,0.80
2023-01-20T22:24:38.645Z,0.80
2023-01-20T22:29:40.039Z,1.00
2023-01-20T22:34:41.811Z,0.70
2023-01-20T22:39:43.334Z,1.00
2023-01-20T22:44:44.844Z,0.85
2023-01-20T22:49:46.213Z,0.90
2023-01-20T22:54:47.846Z,0.93
2023-01-20T22:59:49.258Z,0.77
2023-01-20T23:04:52.271Z,1.00
2023-01-20T23:09:53.663Z,0.80
2023-01-20T23:15:00.845Z,0.90
2023-01-20T23:20:02.356Z,0.80
2023-01-20T23:25:03.910Z,0.80
2023-01-20T23:30:05.879Z,0.82
2023-01-20T23:35:07.459Z,0.77
2023-01-20T23:40:09.593Z,0.57
2023-01-20T23:45:11.205Z,0.70
2023-01-20T23:50:12.716Z,0.50
2023-01-20T23:55:14.207Z,0.77
